createdAt,value
2023-04-23T00:03:29.240Z,13.63
2023-04-23T00:08:52.959Z,13.60
2023-04-23T00:14:14.410Z,13.40
2023-04-23T00:19:35.893Z,13.22
2023-04-23T00:24:57.058Z,13.20
2023-04-23T00:30:19.063Z,13.06
2023-04-23T00:35:39.759Z,12.92
2023-04-23T00:41:00.477Z,12.89
2023-04-23T00:46:21.980Z,12.76
2023-04-23T00:51:43.064Z,12.79
2023-04-23T00:57:03.895Z,12.75
2023-04-23T01:02:28.181Z,12.67
2023-04-23T01:07:49.553Z,12.59
2023-04-23T01:13:13.049Z,12.54
2023-04-23T01:18:34.479Z,12.54
2023-04-23T01:23:56.042Z,12.45
2023-04-23T01:29:18.322Z,12.53
2023-04-23T01:34:41.304Z,12.50
2023-04-23T01:40:02.305Z,12.43
2023-04-23T01:45:23.810Z,12.35
2023-04-23T01:50:45.160Z,12.42
2023-04-23T01:56:06.685Z,12.44
2023-04-23T02:01:44.951Z,12.37
2023-04-23T02:07:06.118Z,12.33
2023-04-23T02:12:26.893Z,12.43
2023-04-23T02:17:51.238Z,12.43
2023-04-23T02:23:12.512Z,12.39
2023-04-23T02:28:33.556Z,12.34
2023-04-23T02:33:54.249Z,12.33
2023-04-23T02:39:15.944Z,12.27
2023-04-23T02:44:36.755Z,12.32
2023-04-23T02:49:58.278Z,12.34
2023-04-23T02:55:19.322Z,12.37
2023-04-23T03:00:40.075Z,12.33
2023-04-23T03:06:02.080Z,12.41
2023-04-23T03:11:22.921Z,12.53
2023-04-23T03:16:44.334Z,12.61
2023-04-23T03:22:06.043Z,12.69
2023-04-23T03:27:27.206Z,12.73
2023-04-23T03:32:50.375Z,12.69
2023-04-23T03:38:11.172Z,12.71
2023-04-23T03:43:32.532Z,12.64
2023-04-23T03:48:59.547Z,12.59
2023-04-23T03:54:23.438Z,12.40
2023-04-23T04:00:19.469Z,12.94
2023-04-23T04:05:41.688Z,13.38
2023-04-23T04:11:02.395Z,12.99
2023-04-23T04:16:23.221Z,12.65
2023-04-23T04:21:43.917Z,12.49
2023-04-23T04:27:06.013Z,12.48
2023-04-23T04:32:27.136Z,12.27
2023-04-23T04:37:48.062Z,12.30
2023-04-23T04:43:10.247Z,12.38
2023-04-23T04:48:31.409Z,12.37
2023-04-23T04:53:53.144Z,12.37
2023-04-23T04:59:13.996Z,12.35
2023-04-23T05:04:34.746Z,12.31
2023-04-23T05:09:55.604Z,12.18
2023-04-23T05:15:16.709Z,12.25
2023-04-23T05:20:38.561Z,12.26
2023-04-23T05:25:59.606Z,12.54
2023-04-23T05:31:20.487Z,12.64
2023-04-23T05:36:41.360Z,12.55
2023-04-23T05:42:03.165Z,12.55
2023-04-23T05:47:24.142Z,12.59
2023-04-23T05:52:44.926Z,12.65
2023-04-23T05:58:06.232Z,12.57
2023-04-23T06:03:27.655Z,12.67
2023-04-23T06:08:51.179Z,12.79
2023-04-23T06:29:19.731Z,13.91
2023-04-23T06:35:01.643Z,13.76
2023-04-23T06:40:23.364Z,13.75
2023-04-23T06:45:44.089Z,13.74
2023-04-23T06:51:06.111Z,13.82
2023-04-23T07:34:16.363Z,13.97
2023-04-23T07:39:37.080Z,14.24
2023-04-23T07:44:57.952Z,14.60
2023-04-23T07:50:19.174Z,14.92
2023-04-23T07:55:39.880Z,15.25
2023-04-23T08:01:02.636Z,15.44
2023-04-23T08:06:24.053Z,15.53
2023-04-23T08:11:45.064Z,15.67
2023-04-23T08:17:05.838Z,15.60
2023-04-23T08:22:26.354Z,15.49
2023-04-23T08:27:47.642Z,15.46
2023-04-23T08:33:08.383Z,15.55
2023-04-23T08:38:29.362Z,15.74
2023-04-23T08:43:59.451Z,15.85
2023-04-23T08:49:20.486Z,16.03
2023-04-23T08:54:45.943Z,16.29
2023-04-23T09:00:11.720Z,16.35
2023-04-23T09:05:32.706Z,16.28
2023-04-23T09:10:56.179Z,16.43
2023-04-23T09:16:17.064Z,16.46
2023-04-23T09:21:40.104Z,16.39
2023-04-23T09:27:01.046Z,16.35
2023-04-23T09:32:32.384Z,16.36
2023-04-23T09:37:53.383Z,16.35
2023-04-23T09:43:14.264Z,16.27
2023-04-23T09:48:43.109Z,16.28
2023-04-23T10:00:26.073Z,16.23
2023-04-23T10:06:00.469Z,16.28
2023-04-23T10:11:25.414Z,15.98
2023-04-23T10:16:49.344Z,15.91
2023-04-23T10:27:52.933Z,15.66
2023-04-23T10:33:29.091Z,15.68
2023-04-23T10:38:57.914Z,15.73
2023-04-23T10:44:44.902Z,15.78
2023-04-23T10:50:28.575Z,15.74
2023-04-23T10:55:49.450Z,15.67
2023-04-23T11:01:10.598Z,15.58
2023-04-23T11:06:50.290Z,15.63
2023-04-23T11:12:32.843Z,15.55
2023-04-23T11:17:53.905Z,15.53
2023-04-23T11:23:32.383Z,15.57
2023-04-23T11:28:55.054Z,15.55
2023-04-23T11:34:17.653Z,15.50
2023-04-23T11:39:41.382Z,15.43
2023-04-23T11:45:02.997Z,15.40
2023-04-23T11:50:26.736Z,15.42
2023-04-23T11:55:49.469Z,15.30
2023-04-23T12:01:12.672Z,15.18
2023-04-23T12:06:33.826Z,15.17
2023-04-23T12:11:58.597Z,15.24
2023-04-23T12:17:19.795Z,15.26
2023-04-23T12:22:41.049Z,15.34
2023-04-23T12:28:05.473Z,15.30
2023-04-23T12:33:30.274Z,15.22
2023-04-23T12:38:51.473Z,15.13
2023-04-23T12:44:12.819Z,15.18
2023-04-23T12:49:35.807Z,15.24
2023-04-23T12:54:58.703Z,15.21
2023-04-23T13:00:19.887Z,15.21
2023-04-23T13:05:41.837Z,15.31
2023-04-23T13:11:02.764Z,15.43
2023-04-23T13:16:27.493Z,15.55
2023-04-23T13:21:48.249Z,15.52
2023-04-23T13:27:11.213Z,15.48
2023-04-23T13:32:32.720Z,15.55
2023-04-23T13:37:53.674Z,15.72
2023-04-23T13:43:14.697Z,15.83
2023-04-23T13:48:35.368Z,15.95
2023-04-23T13:53:56.246Z,15.97
2023-04-23T13:59:19.448Z,16.01
2023-04-23T14:04:41.197Z,16.18
2023-04-23T14:10:02.347Z,16.12
2023-04-23T14:15:23.553Z,15.91
2023-04-23T14:20:44.876Z,15.70
2023-04-23T14:26:10.632Z,15.62
2023-04-23T14:31:31.898Z,15.51
2023-04-23T14:36:53.421Z,15.55
2023-04-23T14:42:14.089Z,15.61
2023-04-23T14:47:35.177Z,15.76
2023-04-23T14:52:56.175Z,15.83
2023-04-23T14:58:17.452Z,15.72
2023-04-23T15:03:38.673Z,15.51
2023-04-23T15:09:02.174Z,15.45
2023-04-23T15:14:32.044Z,15.43
2023-04-23T15:19:54.523Z,15.48
2023-04-23T15:25:16.648Z,15.47
2023-04-23T15:30:37.602Z,15.58
2023-04-23T15:35:59.913Z,15.69
2023-04-23T15:41:21.087Z,15.67
2023-04-23T15:46:41.963Z,15.60
2023-04-23T15:52:02.813Z,15.52
2023-04-23T15:57:23.805Z,15.45
2023-04-23T16:02:45.549Z,15.54
2023-04-23T16:08:06.414Z,15.36
2023-04-23T16:13:29.017Z,15.39
2023-04-23T16:18:50.131Z,15.42
2023-04-23T16:24:11.834Z,15.33
2023-04-23T16:29:32.928Z,15.32
2023-04-23T16:34:53.800Z,15.36
2023-04-23T16:40:15.956Z,15.30
2023-04-23T16:45:37.922Z,15.33
2023-04-23T16:50:59.916Z,15.37
2023-04-23T16:56:21.284Z,15.48
2023-04-23T17:01:42.307Z,15.47
2023-04-23T17:07:03.463Z,15.38
2023-04-23T17:12:24.410Z,15.38
2023-04-23T17:17:45.304Z,15.32
2023-04-23T17:23:06.154Z,15.17
2023-04-23T17:28:27.024Z,14.94
2023-04-23T17:33:49.664Z,14.93
2023-04-23T17:39:10.547Z,14.88
2023-04-23T17:44:31.419Z,14.84
2023-04-23T17:49:53.220Z,14.77
2023-04-23T17:55:17.302Z,14.74
2023-04-23T18:00:40.248Z,14.78
2023-04-23T18:06:01.596Z,14.83
2023-04-23T18:11:22.656Z,14.81
2023-04-23T18:16:43.569Z,14.81
2023-04-23T18:22:04.565Z,14.84
2023-04-23T18:27:25.620Z,14.76
2023-04-23T18:32:59.514Z,14.70
2023-04-23T18:38:46.791Z,14.80
2023-04-23T18:44:07.826Z,14.71
2023-04-23T18:49:43.919Z,14.69
2023-04-23T18:55:08.251Z,14.62
2023-04-23T19:00:29.901Z,14.42
2023-04-23T19:05:50.948Z,14.47
2023-04-23T19:11:12.187Z,14.38
2023-04-23T19:16:33.413Z,14.24
2023-04-23T19:21:54.775Z,14.10
2023-04-23T19:27:15.721Z,14.07
2023-04-23T19:32:36.718Z,14.00
2023-04-23T19:37:57.876Z,13.75
2023-04-23T19:43:20.063Z,13.57
2023-04-23T19:48:41.501Z,13.43
2023-04-23T19:54:05.351Z,13.30
2023-04-23T19:59:26.555Z,13.16
2023-04-23T20:04:47.503Z,13.02
2023-04-23T20:10:10.657Z,13.00
2023-04-23T20:15:32.584Z,12.94
2023-04-23T20:20:54.765Z,12.90
2023-04-23T20:26:16.111Z,12.91
2023-04-23T20:31:37.482Z,12.86
2023-04-23T20:37:02.582Z,12.91
2023-04-23T20:42:25.654Z,12.99
2023-04-23T20:47:47.428Z,13.13
2023-04-23T20:53:08.518Z,13.19
2023-04-23T20:58:29.815Z,13.26
2023-04-23T21:03:53.133Z,13.17
2023-04-23T21:09:14.588Z,13.32
2023-04-23T21:14:36.271Z,13.33
2023-04-23T21:19:57.393Z,13.25
2023-04-23T21:25:21.287Z,13.22
2023-04-23T21:30:49.445Z,13.19
2023-04-23T21:36:10.818Z,13.09
2023-04-23T21:41:32.002Z,13.15
2023-04-23T21:46:52.780Z,12.91
2023-04-23T21:52:14.500Z,12.71
2023-04-23T21:57:35.892Z,12.64
2023-04-23T22:02:57.255Z,12.63
2023-04-23T22:08:19.035Z,12.75
2023-04-23T22:13:40.566Z,12.84
2023-04-23T22:19:02.456Z,12.76
2023-04-23T22:24:23.824Z,12.56
2023-04-23T22:29:44.724Z,12.34
2023-04-23T22:35:07.343Z,12.20
2023-04-23T22:40:28.558Z,12.17
2023-04-23T22:45:49.277Z,12.03
2023-04-23T22:51:13.929Z,12.07
2023-04-23T22:56:34.896Z,11.82
2023-04-23T23:01:55.551Z,11.69
2023-04-23T23:07:16.502Z,11.58
2023-04-23T23:12:37.366Z,11.57
2023-04-23T23:17:58.333Z,11.60
2023-04-23T23:23:19.056Z,11.68
2023-04-23T23:28:39.808Z,11.65
2023-04-23T23:34:00.540Z,11.49
2023-04-23T23:39:21.309Z,11.41
2023-04-23T23:44:42.242Z,11.49
2023-04-23T23:50:03.612Z,11.52
2023-04-23T23:55:24.903Z,11.57
